Terminal Aerodrome Forecast
Issued by NWS Boise, ID

Home | Current Version | Previous Version | Text Only | Print | Product List | Glossary On
Versions: 1 2 3 4 5 6 7 8 9 10 11 12 13 14 15 16 17
000
FTUS45 KBOI 242340
TAFBOI
TAF
KBOI 242340Z 2500/2524 VRB06KT P6SM VCSH BKN100
     FM250300 13006KT P6SM BKN050 OVC100
     FM250900 15008KT 5SM BR BKN035 OVC050
     FM251900 31010KT P6SM VCSH SCT050 BKN100=

USA.gov is the U.S. government's official web portal to all federal, state and local government web resources and services.